sensor_id;sensor_type;location;lat;lon;timestamp;P1;durP1;ratioP1;P2;durP2;ratioP2
81952;SDS011;71454;55.476;14.282;2024-01-16T00:01:24;1.15;;;0.38;;
81952;SDS011;71454;55.476;14.282;2024-01-16T00:03:49;0.20;;;0.13;;
81952;SDS011;71454;55.476;14.282;2024-01-16T00:06:15;0.52;;;0.30;;
81952;SDS011;71454;55.476;14.282;2024-01-16T00:08:40;0.55;;;0.28;;
81952;SDS011;71454;55.476;14.282;2024-01-16T00:11:06;1.20;;;0.20;;
81952;SDS011;71454;55.476;14.282;2024-01-16T00:13:32;1.33;;;0.60;;
81952;SDS011;71454;55.476;14.282;2024-01-16T00:15:57;1.08;;;0.40;;
81952;SDS011;71454;55.476;14.282;2024-01-16T00:18:22;1.55;;;0.30;;
81952;SDS011;71454;55.476;14.282;2024-01-16T00:20:48;1.63;;;0.50;;
81952;SDS011;71454;55.476;14.282;2024-01-16T00:23:13;2.10;;;0.50;;
81952;SDS011;71454;55.476;14.282;2024-01-16T00:25:39;0.82;;;0.30;;
81952;SDS011;71454;55.476;14.282;2024-01-16T00:28:04;1.35;;;0.40;;
81952;SDS011;71454;55.476;14.282;2024-01-16T00:30:29;1.02;;;0.35;;
81952;SDS011;71454;55.476;14.282;2024-01-16T00:32:55;0.88;;;0.50;;
81952;SDS011;71454;55.476;14.282;2024-01-16T00:35:20;1.42;;;0.50;;
81952;SDS011;71454;55.476;14.282;2024-01-16T00:37:45;0.60;;;0.20;;
81952;SDS011;71454;55.476;14.282;2024-01-16T00:40:10;0.63;;;0.30;;
81952;SDS011;71454;55.476;14.282;2024-01-16T00:42:36;2.83;;;0.52;;
81952;SDS011;71454;55.476;14.282;2024-01-16T00:45:01;2.00;;;0.25;;
81952;SDS011;71454;55.476;14.282;2024-01-16T00:47:26;3.67;;;0.68;;
81952;SDS011;71454;55.476;14.282;2024-01-16T00:49:52;7.68;;;0.60;;
81952;SDS011;71454;55.476;14.282;2024-01-16T00:52:17;0.38;;;0.28;;
81952;SDS011;71454;55.476;14.282;2024-01-16T00:54:43;1.45;;;0.52;;
81952;SDS011;71454;55.476;14.282;2024-01-16T00:57:08;0.70;;;0.30;;
81952;SDS011;71454;55.476;14.282;2024-01-16T00:59:33;1.73;;;0.57;;
81952;SDS011;71454;55.476;14.282;2024-01-16T01:01:59;1.75;;;0.50;;
81952;SDS011;71454;55.476;14.282;2024-01-16T01:04:24;1.73;;;0.50;;
81952;SDS011;71454;55.476;14.282;2024-01-16T01:06:49;1.02;;;0.40;;
81952;SDS011;71454;55.476;14.282;2024-01-16T01:09:15;0.52;;;0.20;;
81952;SDS011;71454;55.476;14.282;2024-01-16T01:11:41;0.45;;;0.38;;
81952;SDS011;71454;55.476;14.282;2024-01-16T01:14:06;2.03;;;0.70;;
81952;SDS011;71454;55.476;14.282;2024-01-16T01:16:31;1.30;;;0.57;;
81952;SDS011;71454;55.476;14.282;2024-01-16T01:18:57;2.13;;;0.57;;
81952;SDS011;71454;55.476;14.282;2024-01-16T01:21:22;1.95;;;0.30;;
81952;SDS011;71454;55.476;14.282;2024-01-16T01:23:47;0.88;;;0.30;;
81952;SDS011;71454;55.476;14.282;2024-01-16T01:26:12;1.07;;;0.40;;
81952;SDS011;71454;55.476;14.282;2024-01-16T01:28:43;2.72;;;0.55;;
81952;SDS011;71454;55.476;14.282;2024-01-16T01:31:09;1.67;;;0.60;;
81952;SDS011;71454;55.476;14.282;2024-01-16T01:33:34;1.17;;;0.50;;
81952;SDS011;71454;55.476;14.282;2024-01-16T01:36:00;1.95;;;0.60;;
81952;SDS011;71454;55.476;14.282;2024-01-16T01:38:25;1.40;;;0.53;;
81952;SDS011;71454;55.476;14.282;2024-01-16T01:40:50;3.72;;;0.68;;
81952;SDS011;71454;55.476;14.282;2024-01-16T01:43:24;1.52;;;0.60;;
81952;SDS011;71454;55.476;14.282;2024-01-16T01:48:31;2.42;;;0.75;;
81952;SDS011;71454;55.476;14.282;2024-01-16T01:50:57;1.88;;;0.50;;
81952;SDS011;71454;55.476;14.282;2024-01-16T01:53:22;0.82;;;0.32;;
81952;SDS011;71454;55.476;14.282;2024-01-16T01:55:48;1.10;;;0.40;;
81952;SDS011;71454;55.476;14.282;2024-01-16T01:58:14;1.83;;;0.60;;
81952;SDS011;71454;55.476;14.282;2024-01-16T02:00:39;1.45;;;0.40;;
81952;SDS011;71454;55.476;14.282;2024-01-16T02:03:04;1.42;;;0.60;;
81952;SDS011;71454;55.476;14.282;2024-01-16T02:05:30;3.50;;;0.77;;
81952;SDS011;71454;55.476;14.282;2024-01-16T02:07:56;1.83;;;0.70;;
81952;SDS011;71454;55.476;14.282;2024-01-16T02:10:21;0.90;;;0.35;;
81952;SDS011;71454;55.476;14.282;2024-01-16T02:12:46;1.10;;;0.43;;
81952;SDS011;71454;55.476;14.282;2024-01-16T02:15:12;1.42;;;0.50;;
81952;SDS011;71454;55.476;14.282;2024-01-16T02:17:37;0.93;;;0.38;;
81952;SDS011;71454;55.476;14.282;2024-01-16T02:20:02;2.70;;;0.60;;
81952;SDS011;71454;55.476;14.282;2024-01-16T02:22:28;2.25;;;0.68;;
81952;SDS011;71454;55.476;14.282;2024-01-16T02:24:54;2.83;;;0.90;;
81952;SDS011;71454;55.476;14.282;2024-01-16T02:27:21;1.50;;;0.77;;
81952;SDS011;71454;55.476;14.282;2024-01-16T02:29:46;2.17;;;0.70;;
81952;SDS011;71454;55.476;14.282;2024-01-16T02:32:12;2.67;;;0.63;;
81952;SDS011;71454;55.476;14.282;2024-01-16T02:34:37;0.85;;;0.38;;
81952;SDS011;71454;55.476;14.282;2024-01-16T02:37:03;1.65;;;0.77;;
81952;SDS011;71454;55.476;14.282;2024-01-16T02:39:29;1.30;;;0.40;;
81952;SDS011;71454;55.476;14.282;2024-01-16T02:41:54;1.83;;;0.60;;
81952;SDS011;71454;55.476;14.282;2024-01-16T02:44:19;1.63;;;0.60;;
81952;SDS011;71454;55.476;14.282;2024-01-16T02:46:45;2.00;;;0.63;;
81952;SDS011;71454;55.476;14.282;2024-01-16T02:49:10;2.65;;;0.80;;
81952;SDS011;71454;55.476;14.282;2024-01-16T02:51:36;0.75;;;0.38;;
81952;SDS011;71454;55.476;14.282;2024-01-16T02:54:01;1.83;;;0.82;;
81952;SDS011;71454;55.476;14.282;2024-01-16T02:56:26;0.73;;;0.30;;
81952;SDS011;71454;55.476;14.282;2024-01-16T02:58:51;1.23;;;0.35;;
81952;SDS011;71454;55.476;14.282;2024-01-16T03:01:17;2.50;;;0.33;;
81952;SDS011;71454;55.476;14.282;2024-01-16T03:03:43;1.65;;;0.50;;
81952;SDS011;71454;55.476;14.282;2024-01-16T03:06:08;1.63;;;0.60;;
81952;SDS011;71454;55.476;14.282;2024-01-16T03:08:33;2.90;;;0.88;;
81952;SDS011;71454;55.476;14.282;2024-01-16T03:10:59;1.77;;;0.70;;
81952;SDS011;71454;55.476;14.282;2024-01-16T03:13:24;3.38;;;0.75;;
81952;SDS011;71454;55.476;14.282;2024-01-16T03:15:49;1.90;;;0.60;;
81952;SDS011;71454;55.476;14.282;2024-01-16T03:18:15;2.33;;;0.70;;
81952;SDS011;71454;55.476;14.282;2024-01-16T03:20:42;1.00;;;0.38;;
81952;SDS011;71454;55.476;14.282;2024-01-16T03:23:07;2.38;;;0.75;;
81952;SDS011;71454;55.476;14.282;2024-01-16T03:25:33;0.77;;;0.30;;
81952;SDS011;71454;55.476;14.282;2024-01-16T03:28:03;1.60;;;0.60;;
81952;SDS011;71454;55.476;14.282;2024-01-16T03:30:29;2.10;;;0.70;;
81952;SDS011;71454;55.476;14.282;2024-01-16T03:32:54;2.53;;;0.77;;
81952;SDS011;71454;55.476;14.282;2024-01-16T03:35:19;2.47;;;0.70;;
81952;SDS011;71454;55.476;14.282;2024-01-16T03:37:45;3.20;;;1.00;;
81952;SDS011;71454;55.476;14.282;2024-01-16T03:40:10;3.17;;;1.07;;
81952;SDS011;71454;55.476;14.282;2024-01-16T03:42:37;2.53;;;0.73;;
81952;SDS011;71454;55.476;14.282;2024-01-16T03:45:02;2.67;;;0.80;;
81952;SDS011;71454;55.476;14.282;2024-01-16T03:47:27;1.65;;;0.65;;
81952;SDS011;71454;55.476;14.282;2024-01-16T03:49:53;1.17;;;0.57;;
81952;SDS011;71454;55.476;14.282;2024-01-16T03:52:18;1.47;;;0.53;;
81952;SDS011;71454;55.476;14.282;2024-01-16T03:54:43;3.40;;;1.00;;
81952;SDS011;71454;55.476;14.282;2024-01-16T03:57:08;3.00;;;0.90;;
81952;SDS011;71454;55.476;14.282;2024-01-16T03:59:36;2.37;;;0.87;;
81952;SDS011;71454;55.476;14.282;2024-01-16T04:02:01;1.92;;;0.80;;
81952;SDS011;71454;55.476;14.282;2024-01-16T04:04:28;2.63;;;0.50;;
81952;SDS011;71454;55.476;14.282;2024-01-16T04:06:53;1.83;;;0.43;;
81952;SDS011;71454;55.476;14.282;2024-01-16T04:09:18;1.95;;;0.70;;
81952;SDS011;71454;55.476;14.282;2024-01-16T04:11:44;1.57;;;0.57;;
81952;SDS011;71454;55.476;14.282;2024-01-16T04:14:09;2.75;;;0.90;;
81952;SDS011;71454;55.476;14.282;2024-01-16T04:16:35;2.37;;;0.90;;
81952;SDS011;71454;55.476;14.282;2024-01-16T04:19:00;2.95;;;1.00;;
81952;SDS011;71454;55.476;14.282;2024-01-16T04:21:25;2.60;;;0.90;;
81952;SDS011;71454;55.476;14.282;2024-01-16T04:23:51;1.98;;;0.80;;
81952;SDS011;71454;55.476;14.282;2024-01-16T04:26:16;1.98;;;0.90;;
81952;SDS011;71454;55.476;14.282;2024-01-16T04:28:41;1.33;;;0.60;;
81952;SDS011;71454;55.476;14.282;2024-01-16T04:31:08;2.38;;;0.70;;
81952;SDS011;71454;55.476;14.282;2024-01-16T04:33:33;2.22;;;0.88;;
81952;SDS011;71454;55.476;14.282;2024-01-16T04:35:58;1.87;;;0.80;;
81952;SDS011;71454;55.476;14.282;2024-01-16T04:38:23;2.67;;;0.82;;
81952;SDS011;71454;55.476;14.282;2024-01-16T04:40:49;3.27;;;0.90;;
81952;SDS011;71454;55.476;14.282;2024-01-16T04:43:14;2.65;;;0.63;;
81952;SDS011;71454;55.476;14.282;2024-01-16T04:45:39;1.10;;;0.52;;
81952;SDS011;71454;55.476;14.282;2024-01-16T04:48:05;2.58;;;0.88;;
81952;SDS011;71454;55.476;14.282;2024-01-16T04:50:30;2.38;;;0.80;;
81952;SDS011;71454;55.476;14.282;2024-01-16T04:52:58;2.13;;;0.80;;
81952;SDS011;71454;55.476;14.282;2024-01-16T04:55:28;2.60;;;0.73;;
81952;SDS011;71454;55.476;14.282;2024-01-16T04:57:54;1.85;;;0.90;;
81952;SDS011;71454;55.476;14.282;2024-01-16T05:00:20;1.65;;;0.80;;
81952;SDS011;71454;55.476;14.282;2024-01-16T05:02:45;4.10;;;0.77;;
81952;SDS011;71454;55.476;14.282;2024-01-16T05:05:11;4.15;;;0.77;;
81952;SDS011;71454;55.476;14.282;2024-01-16T05:07:37;2.95;;;0.80;;
81952;SDS011;71454;55.476;14.282;2024-01-16T05:10:02;2.37;;;0.80;;
81952;SDS011;71454;55.476;14.282;2024-01-16T05:12:27;2.05;;;0.80;;
81952;SDS011;71454;55.476;14.282;2024-01-16T05:14:53;1.20;;;0.40;;
81952;SDS011;71454;55.476;14.282;2024-01-16T05:17:18;2.30;;;0.70;;
81952;SDS011;71454;55.476;14.282;2024-01-16T05:19:43;4.60;;;0.67;;
81952;SDS011;71454;55.476;14.282;2024-01-16T05:22:09;3.23;;;0.90;;
81952;SDS011;71454;55.476;14.282;2024-01-16T05:24:35;5.15;;;0.95;;
81952;SDS011;71454;55.476;14.282;2024-01-16T05:27:00;3.17;;;0.90;;
81952;SDS011;71454;55.476;14.282;2024-01-16T05:29:25;4.78;;;1.00;;
81952;SDS011;71454;55.476;14.282;2024-01-16T05:31:50;3.37;;;0.57;;
81952;SDS011;71454;55.476;14.282;2024-01-16T05:34:16;1.70;;;0.63;;
81952;SDS011;71454;55.476;14.282;2024-01-16T05:36:41;2.15;;;0.75;;
81952;SDS011;71454;55.476;14.282;2024-01-16T05:39:07;2.65;;;0.60;;
81952;SDS011;71454;55.476;14.282;2024-01-16T05:41:33;1.30;;;0.65;;
81952;SDS011;71454;55.476;14.282;2024-01-16T05:43:59;1.40;;;0.60;;
81952;SDS011;71454;55.476;14.282;2024-01-16T05:46:24;2.78;;;0.73;;
81952;SDS011;71454;55.476;14.282;2024-01-16T05:48:49;2.97;;;0.90;;
81952;SDS011;71454;55.476;14.282;2024-01-16T05:51:15;1.75;;;0.70;;
81952;SDS011;71454;55.476;14.282;2024-01-16T05:53:40;3.00;;;0.90;;
81952;SDS011;71454;55.476;14.282;2024-01-16T05:56:06;2.75;;;0.82;;
81952;SDS011;71454;55.476;14.282;2024-01-16T05:58:31;1.60;;;0.60;;
81952;SDS011;71454;55.476;14.282;2024-01-16T06:01:00;2.25;;;0.73;;
81952;SDS011;71454;55.476;14.282;2024-01-16T06:03:26;1.90;;;0.82;;
81952;SDS011;71454;55.476;14.282;2024-01-16T06:05:51;2.05;;;0.68;;
81952;SDS011;71454;55.476;14.282;2024-01-16T06:08:16;1.63;;;0.60;;
81952;SDS011;71454;55.476;14.282;2024-01-16T06:10:42;2.22;;;0.63;;
81952;SDS011;71454;55.476;14.282;2024-01-16T06:13:07;1.58;;;0.60;;
81952;SDS011;71454;55.476;14.282;2024-01-16T06:15:32;3.97;;;0.75;;
81952;SDS011;71454;55.476;14.282;2024-01-16T06:17:58;2.75;;;1.10;;
81952;SDS011;71454;55.476;14.282;2024-01-16T06:20:23;5.30;;;1.77;;
81952;SDS011;71454;55.476;14.282;2024-01-16T06:22:50;9.43;;;1.60;;
81952;SDS011;71454;55.476;14.282;2024-01-16T06:25:15;4.40;;;0.90;;
81952;SDS011;71454;55.476;14.282;2024-01-16T06:27:40;2.53;;;0.90;;
81952;SDS011;71454;55.476;14.282;2024-01-16T06:30:06;2.42;;;0.70;;
81952;SDS011;71454;55.476;14.282;2024-01-16T06:32:33;4.07;;;1.05;;
81952;SDS011;71454;55.476;14.282;2024-01-16T06:34:58;1.92;;;0.63;;
81952;SDS011;71454;55.476;14.282;2024-01-16T06:37:24;1.90;;;0.80;;
81952;SDS011;71454;55.476;14.282;2024-01-16T06:39:49;4.35;;;1.05;;
81952;SDS011;71454;55.476;14.282;2024-01-16T06:42:14;1.77;;;0.63;;
81952;SDS011;71454;55.476;14.282;2024-01-16T06:44:39;2.53;;;0.50;;
81952;SDS011;71454;55.476;14.282;2024-01-16T06:47:05;3.33;;;0.82;;
81952;SDS011;71454;55.476;14.282;2024-01-16T06:49:30;3.85;;;1.08;;
81952;SDS011;71454;55.476;14.282;2024-01-16T06:51:55;3.03;;;1.23;;
81952;SDS011;71454;55.476;14.282;2024-01-16T06:54:22;4.03;;;1.25;;
81952;SDS011;71454;55.476;14.282;2024-01-16T06:56:48;2.67;;;1.00;;
81952;SDS011;71454;55.476;14.282;2024-01-16T06:59:14;3.05;;;1.00;;
81952;SDS011;71454;55.476;14.282;2024-01-16T07:01:40;2.92;;;0.88;;
81952;SDS011;71454;55.476;14.282;2024-01-16T07:04:05;2.97;;;1.00;;
81952;SDS011;71454;55.476;14.282;2024-01-16T07:06:30;3.10;;;1.17;;
81952;SDS011;71454;55.476;14.282;2024-01-16T07:08:55;3.22;;;1.05;;
81952;SDS011;71454;55.476;14.282;2024-01-16T07:11:21;3.17;;;1.20;;
81952;SDS011;71454;55.476;14.282;2024-01-16T07:13:46;4.10;;;1.00;;
81952;SDS011;71454;55.476;14.282;2024-01-16T07:16:11;3.47;;;1.23;;
81952;SDS011;71454;55.476;14.282;2024-01-16T07:18:37;3.33;;;1.30;;
81952;SDS011;71454;55.476;14.282;2024-01-16T07:21:03;2.95;;;1.10;;
81952;SDS011;71454;55.476;14.282;2024-01-16T07:23:29;3.75;;;1.33;;
81952;SDS011;71454;55.476;14.282;2024-01-16T07:25:54;3.22;;;1.30;;
81952;SDS011;71454;55.476;14.282;2024-01-16T07:28:19;2.10;;;0.90;;
81952;SDS011;71454;55.476;14.282;2024-01-16T07:30:47;2.53;;;0.90;;
81952;SDS011;71454;55.476;14.282;2024-01-16T07:33:12;1.70;;;0.75;;
81952;SDS011;71454;55.476;14.282;2024-01-16T07:35:37;2.47;;;0.68;;
81952;SDS011;71454;55.476;14.282;2024-01-16T07:38:06;2.03;;;0.68;;
81952;SDS011;71454;55.476;14.282;2024-01-16T07:40:31;2.05;;;0.68;;
81952;SDS011;71454;55.476;14.282;2024-01-16T07:42:56;1.77;;;0.70;;
81952;SDS011;71454;55.476;14.282;2024-01-16T07:45:21;0.52;;;0.43;;
81952;SDS011;71454;55.476;14.282;2024-01-16T07:47:47;2.93;;;1.27;;
81952;SDS011;71454;55.476;14.282;2024-01-16T07:50:12;2.47;;;1.00;;
81952;SDS011;71454;55.476;14.282;2024-01-16T07:52:37;3.25;;;1.08;;
81952;SDS011;71454;55.476;14.282;2024-01-16T07:55:04;2.67;;;0.95;;
81952;SDS011;71454;55.476;14.282;2024-01-16T07:57:29;3.20;;;1.10;;
81952;SDS011;71454;55.476;14.282;2024-01-16T07:59:54;2.70;;;0.95;;
81952;SDS011;71454;55.476;14.282;2024-01-16T08:02:20;1.53;;;0.80;;
81952;SDS011;71454;55.476;14.282;2024-01-16T08:04:45;2.67;;;0.85;;
81952;SDS011;71454;55.476;14.282;2024-01-16T08:07:10;2.92;;;0.93;;
81952;SDS011;71454;55.476;14.282;2024-01-16T08:09:36;3.28;;;1.20;;
81952;SDS011;71454;55.476;14.282;2024-01-16T08:12:01;4.50;;;1.57;;
81952;SDS011;71454;55.476;14.282;2024-01-16T08:14:27;4.70;;;1.63;;
81952;SDS011;71454;55.476;14.282;2024-01-16T08:16:54;6.38;;;1.63;;
81952;SDS011;71454;55.476;14.282;2024-01-16T08:19:19;4.65;;;1.50;;
81952;SDS011;71454;55.476;14.282;2024-01-16T08:21:44;6.00;;;1.80;;
81952;SDS011;71454;55.476;14.282;2024-01-16T08:24:09;3.97;;;1.50;;
81952;SDS011;71454;55.476;14.282;2024-01-16T08:26:35;2.33;;;0.80;;
81952;SDS011;71454;55.476;14.282;2024-01-16T08:29:00;1.45;;;0.63;;
81952;SDS011;71454;55.476;14.282;2024-01-16T08:31:25;1.13;;;0.60;;
81952;SDS011;71454;55.476;14.282;2024-01-16T08:33:51;1.45;;;0.50;;
81952;SDS011;71454;55.476;14.282;2024-01-16T08:36:16;3.22;;;0.70;;
81952;SDS011;71454;55.476;14.282;2024-01-16T08:38:41;0.88;;;0.45;;
81952;SDS011;71454;55.476;14.282;2024-01-16T08:41:07;2.23;;;0.80;;
81952;SDS011;71454;55.476;14.282;2024-01-16T08:43:33;1.48;;;0.52;;
81952;SDS011;71454;55.476;14.282;2024-01-16T08:45:58;1.77;;;0.57;;
81952;SDS011;71454;55.476;14.282;2024-01-16T08:48:23;3.25;;;0.80;;
81952;SDS011;71454;55.476;14.282;2024-01-16T08:50:49;2.03;;;0.68;;
81952;SDS011;71454;55.476;14.282;2024-01-16T08:53:14;1.92;;;0.45;;
81952;SDS011;71454;55.476;14.282;2024-01-16T08:55:39;5.80;;;0.60;;
81952;SDS011;71454;55.476;14.282;2024-01-16T08:58:05;1.80;;;0.52;;
81952;SDS011;71454;55.476;14.282;2024-01-16T09:00:30;1.35;;;0.75;;
81952;SDS011;71454;55.476;14.282;2024-01-16T09:02:55;1.27;;;0.52;;
81952;SDS011;71454;55.476;14.282;2024-01-16T09:05:22;3.10;;;0.95;;
81952;SDS011;71454;55.476;14.282;2024-01-16T09:07:50;1.33;;;0.50;;
81952;SDS011;71454;55.476;14.282;2024-01-16T09:10:15;4.97;;;1.50;;
81952;SDS011;71454;55.476;14.282;2024-01-16T09:12:41;5.32;;;1.42;;
81952;SDS011;71454;55.476;14.282;2024-01-16T09:15:06;5.60;;;1.17;;
81952;SDS011;71454;55.476;14.282;2024-01-16T09:17:31;2.67;;;0.88;;
81952;SDS011;71454;55.476;14.282;2024-01-16T09:19:57;4.30;;;1.55;;
81952;SDS011;71454;55.476;14.282;2024-01-16T09:22:22;4.90;;;1.50;;
81952;SDS011;71454;55.476;14.282;2024-01-16T09:24:47;3.77;;;1.20;;
81952;SDS011;71454;55.476;14.282;2024-01-16T09:27:13;5.20;;;1.40;;
81952;SDS011;71454;55.476;14.282;2024-01-16T09:29:39;5.50;;;1.13;;
81952;SDS011;71454;55.476;14.282;2024-01-16T09:32:05;2.57;;;1.07;;
81952;SDS011;71454;55.476;14.282;2024-01-16T09:34:30;1.67;;;0.75;;
81952;SDS011;71454;55.476;14.282;2024-01-16T09:36:55;3.23;;;0.90;;
81952;SDS011;71454;55.476;14.282;2024-01-16T09:39:24;3.80;;;1.00;;
81952;SDS011;71454;55.476;14.282;2024-01-16T09:41:49;3.95;;;1.15;;
81952;SDS011;71454;55.476;14.282;2024-01-16T09:44:14;2.27;;;0.90;;
81952;SDS011;71454;55.476;14.282;2024-01-16T09:46:40;2.50;;;0.70;;
81952;SDS011;71454;55.476;14.282;2024-01-16T09:49:06;2.50;;;0.80;;
81952;SDS011;71454;55.476;14.282;2024-01-16T09:51:32;3.97;;;0.95;;
81952;SDS011;71454;55.476;14.282;2024-01-16T09:53:57;2.75;;;0.70;;
81952;SDS011;71454;55.476;14.282;2024-01-16T09:56:23;3.65;;;0.80;;
81952;SDS011;71454;55.476;14.282;2024-01-16T09:58:57;2.90;;;0.90;;
81952;SDS011;71454;55.476;14.282;2024-01-16T10:01:26;2.70;;;0.90;;
81952;SDS011;71454;55.476;14.282;2024-01-16T10:03:52;2.03;;;0.68;;
81952;SDS011;71454;55.476;14.282;2024-01-16T10:06:17;1.33;;;0.50;;
81952;SDS011;71454;55.476;14.282;2024-01-16T10:08:44;2.05;;;0.73;;
81952;SDS011;71454;55.476;14.282;2024-01-16T10:11:10;3.13;;;0.52;;
81952;SDS011;71454;55.476;14.282;2024-01-16T10:13:36;0.97;;;0.50;;
81952;SDS011;71454;55.476;14.282;2024-01-16T10:16:01;2.63;;;1.00;;
81952;SDS011;71454;55.476;14.282;2024-01-16T10:18:29;2.28;;;0.50;;
81952;SDS011;71454;55.476;14.282;2024-01-16T10:20:55;1.83;;;0.50;;
81952;SDS011;71454;55.476;14.282;2024-01-16T10:23:28;1.55;;;0.80;;
81952;SDS011;71454;55.476;14.282;2024-01-16T10:26:06;2.42;;;0.50;;
81952;SDS011;71454;55.476;14.282;2024-01-16T10:28:32;2.45;;;0.70;;
81952;SDS011;71454;55.476;14.282;2024-01-16T10:31:09;3.10;;;0.70;;
81952;SDS011;71454;55.476;14.282;2024-01-16T10:33:35;3.10;;;0.88;;
81952;SDS011;71454;55.476;14.282;2024-01-16T10:36:16;2.67;;;0.55;;
81952;SDS011;71454;55.476;14.282;2024-01-16T10:38:44;1.48;;;0.70;;
81952;SDS011;71454;55.476;14.282;2024-01-16T10:41:16;2.80;;;0.80;;
81952;SDS011;71454;55.476;14.282;2024-01-16T10:43:42;1.83;;;0.68;;
81952;SDS011;71454;55.476;14.282;2024-01-16T10:46:16;1.00;;;0.60;;
81952;SDS011;71454;55.476;14.282;2024-01-16T10:48:45;1.17;;;0.38;;
81952;SDS011;71454;55.476;14.282;2024-01-16T10:51:23;2.92;;;0.93;;
81952;SDS011;71454;55.476;14.282;2024-01-16T10:53:48;1.23;;;0.63;;
81952;SDS011;71454;55.476;14.282;2024-01-16T10:56:14;2.50;;;0.70;;
81952;SDS011;71454;55.476;14.282;2024-01-16T10:58:42;1.85;;;0.50;;
81952;SDS011;71454;55.476;14.282;2024-01-16T11:01:11;2.30;;;0.70;;
81952;SDS011;71454;55.476;14.282;2024-01-16T11:03:40;3.90;;;0.70;;
81952;SDS011;71454;55.476;14.282;2024-01-16T11:06:06;1.02;;;0.60;;
81952;SDS011;71454;55.476;14.282;2024-01-16T11:08:33;3.00;;;0.80;;
81952;SDS011;71454;55.476;14.282;2024-01-16T11:10:59;1.63;;;0.50;;
81952;SDS011;71454;55.476;14.282;2024-01-16T11:13:25;1.83;;;0.63;;
81952;SDS011;71454;55.476;14.282;2024-01-16T11:15:51;1.65;;;0.55;;
81952;SDS011;71454;55.476;14.282;2024-01-16T11:18:16;1.10;;;0.50;;
81952;SDS011;71454;55.476;14.282;2024-01-16T11:20:42;2.22;;;0.52;;
81952;SDS011;71454;55.476;14.282;2024-01-16T11:23:10;2.58;;;0.82;;
81952;SDS011;71454;55.476;14.282;2024-01-16T11:25:36;4.07;;;0.95;;
81952;SDS011;71454;55.476;14.282;2024-01-16T11:28:34;2.05;;;0.70;;
81952;SDS011;71454;55.476;14.282;2024-01-16T11:30:54;2.47;;;0.77;;
81952;SDS011;71454;55.476;14.282;2024-01-16T11:38:23;3.78;;;0.65;;
81952;SDS011;71454;55.476;14.282;2024-01-16T11:40:51;1.23;;;0.63;;
81952;SDS011;71454;55.476;14.282;2024-01-16T11:45:57;1.58;;;0.57;;
81952;SDS011;71454;55.476;14.282;2024-01-16T11:48:23;2.08;;;0.63;;
81952;SDS011;71454;55.476;14.282;2024-01-16T11:50:49;1.67;;;0.57;;
81952;SDS011;71454;55.476;14.282;2024-01-16T12:01:23;0.60;;;0.30;;
81952;SDS011;71454;55.476;14.282;2024-01-16T12:06:29;1.85;;;0.63;;
81952;SDS011;71454;55.476;14.282;2024-01-16T12:09:10;1.42;;;0.60;;
81952;SDS011;71454;55.476;14.282;2024-01-16T12:11:35;1.13;;;0.43;;
81952;SDS011;71454;55.476;14.282;2024-01-16T12:14:01;1.35;;;0.52;;
81952;SDS011;71454;55.476;14.282;2024-01-16T12:16:26;0.70;;;0.40;;
81952;SDS011;71454;55.476;14.282;2024-01-16T12:19:03;2.33;;;0.57;;
81952;SDS011;71454;55.476;14.282;2024-01-16T12:21:28;2.17;;;0.50;;
81952;SDS011;71454;55.476;14.282;2024-01-16T12:23:54;3.28;;;1.00;;
81952;SDS011;71454;55.476;14.282;2024-01-16T12:26:20;1.88;;;0.65;;
81952;SDS011;71454;55.476;14.282;2024-01-16T12:28:49;3.22;;;0.65;;
81952;SDS011;71454;55.476;14.282;2024-01-16T12:31:17;2.53;;;0.55;;
81952;SDS011;71454;55.476;14.282;2024-01-16T12:33:43;2.17;;;0.60;;
81952;SDS011;71454;55.476;14.282;2024-01-16T12:36:08;3.08;;;0.40;;
81952;SDS011;71454;55.476;14.282;2024-01-16T12:38:35;1.35;;;0.60;;
81952;SDS011;71454;55.476;14.282;2024-01-16T12:41:01;1.65;;;0.47;;
81952;SDS011;71454;55.476;14.282;2024-01-16T12:43:27;2.47;;;0.70;;
81952;SDS011;71454;55.476;14.282;2024-01-16T12:45:55;2.85;;;0.80;;
81952;SDS011;71454;55.476;14.282;2024-01-16T12:48:25;1.60;;;0.50;;
81952;SDS011;71454;55.476;14.282;2024-01-16T12:50:50;0.63;;;0.32;;
81952;SDS011;71454;55.476;14.282;2024-01-16T12:53:15;3.90;;;0.70;;
81952;SDS011;71454;55.476;14.282;2024-01-16T12:55:44;2.25;;;0.52;;
81952;SDS011;71454;55.476;14.282;2024-01-16T12:58:17;2.67;;;0.88;;
81952;SDS011;71454;55.476;14.282;2024-01-16T13:00:46;1.52;;;0.52;;
81952;SDS011;71454;55.476;14.282;2024-01-16T13:03:15;0.70;;;0.30;;
81952;SDS011;71454;55.476;14.282;2024-01-16T13:05:41;1.67;;;0.52;;
81952;SDS011;71454;55.476;14.282;2024-01-16T13:08:07;1.60;;;0.60;;
81952;SDS011;71454;55.476;14.282;2024-01-16T13:10:32;2.75;;;0.80;;
81952;SDS011;71454;55.476;14.282;2024-01-16T13:15:39;1.92;;;0.40;;
81952;SDS011;71454;55.476;14.282;2024-01-16T13:18:04;2.58;;;0.40;;
81952;SDS011;71454;55.476;14.282;2024-01-16T13:20:30;2.00;;;0.28;;
81952;SDS011;71454;55.476;14.282;2024-01-16T13:22:55;1.70;;;0.50;;
81952;SDS011;71454;55.476;14.282;2024-01-16T13:25:21;3.30;;;0.50;;
81952;SDS011;71454;55.476;14.282;2024-01-16T13:27:46;2.50;;;0.50;;
81952;SDS011;71454;55.476;14.282;2024-01-16T13:30:12;0.43;;;0.28;;
81952;SDS011;71454;55.476;14.282;2024-01-16T13:32:38;1.00;;;0.28;;
81952;SDS011;71454;55.476;14.282;2024-01-16T13:35:03;2.25;;;0.50;;
81952;SDS011;71454;55.476;14.282;2024-01-16T13:37:32;1.15;;;0.40;;
81952;SDS011;71454;55.476;14.282;2024-01-16T13:39:58;0.80;;;0.30;;
81952;SDS011;71454;55.476;14.282;2024-01-16T13:42:24;1.45;;;0.40;;
81952;SDS011;71454;55.476;14.282;2024-01-16T13:44:50;2.20;;;0.50;;
81952;SDS011;71454;55.476;14.282;2024-01-16T13:47:16;1.85;;;0.77;;
81952;SDS011;71454;55.476;14.282;2024-01-16T13:49:43;1.10;;;0.30;;
81952;SDS011;71454;55.476;14.282;2024-01-16T13:52:09;1.80;;;0.30;;
81952;SDS011;71454;55.476;14.282;2024-01-16T13:54:38;0.90;;;0.43;;
81952;SDS011;71454;55.476;14.282;2024-01-16T13:57:04;0.40;;;0.10;;
81952;SDS011;71454;55.476;14.282;2024-01-16T13:59:29;0.85;;;0.15;;
81952;SDS011;71454;55.476;14.282;2024-01-16T14:01:54;0.57;;;0.10;;
81952;SDS011;71454;55.476;14.282;2024-01-16T14:04:20;0.10;;;0.05;;
81952;SDS011;71454;55.476;14.282;2024-01-16T14:06:45;1.02;;;0.30;;
81952;SDS011;71454;55.476;14.282;2024-01-16T14:09:11;0.80;;;0.20;;
81952;SDS011;71454;55.476;14.282;2024-01-16T14:11:36;0.38;;;0.20;;
81952;SDS011;71454;55.476;14.282;2024-01-16T14:14:02;0.47;;;0.20;;
81952;SDS011;71454;55.476;14.282;2024-01-16T14:16:28;1.02;;;0.20;;
81952;SDS011;71454;55.476;14.282;2024-01-16T14:18:53;0.13;;;0.10;;
81952;SDS011;71454;55.476;14.282;2024-01-16T14:21:19;0.30;;;0.10;;
81952;SDS011;71454;55.476;14.282;2024-01-16T14:23:44;0.38;;;0.10;;
81952;SDS011;71454;55.476;14.282;2024-01-16T14:26:09;0.77;;;0.23;;
81952;SDS011;71454;55.476;14.282;2024-01-16T14:28:34;0.30;;;0.20;;
81952;SDS011;71454;55.476;14.282;2024-01-16T14:31:00;2.23;;;0.30;;
81952;SDS011;71454;55.476;14.282;2024-01-16T14:33:26;0.13;;;0.10;;
81952;SDS011;71454;55.476;14.282;2024-01-16T14:35:51;0.28;;;0.15;;
81952;SDS011;71454;55.476;14.282;2024-01-16T14:38:16;1.60;;;0.30;;
81952;SDS011;71454;55.476;14.282;2024-01-16T14:40:42;0.40;;;0.30;;
81952;SDS011;71454;55.476;14.282;2024-01-16T14:43:07;0.55;;;0.20;;
81952;SDS011;71454;55.476;14.282;2024-01-16T14:45:33;1.23;;;0.20;;
81952;SDS011;71454;55.476;14.282;2024-01-16T14:47:59;3.45;;;1.10;;
81952;SDS011;71454;55.476;14.282;2024-01-16T14:50:25;2.15;;;0.52;;